createdAt,value
2018-06-16T00:01:05.414Z,23.12
2018-06-16T00:03:33.654Z,23.45
2018-06-16T00:06:01.910Z,22.35
2018-06-16T00:08:30.159Z,24.50
2018-06-16T00:10:58.461Z,23.10
2018-06-16T00:13:26.715Z,22.65
2018-06-16T00:15:54.944Z,24.80
2018-06-16T00:18:23.253Z,25.68
2018-06-16T00:20:51.501Z,26.40
2018-06-16T00:23:19.786Z,25.10
2018-06-16T00:25:48.066Z,25.90
2018-06-16T00:28:16.301Z,25.40
2018-06-16T00:30:44.624Z,25.40
2018-06-16T00:33:13.019Z,25.77
2018-06-16T00:35:41.279Z,26.33
2018-06-16T00:38:09.520Z,25.60
2018-06-16T00:40:37.798Z,25.32
2018-06-16T00:43:06.035Z,24.80
2018-06-16T00:45:34.283Z,25.88
2018-06-16T00:48:02.534Z,26.40
2018-06-16T00:50:30.829Z,25.82
2018-06-16T00:52:59.148Z,25.80
2018-06-16T00:55:27.338Z,25.88
2018-06-16T00:57:55.603Z,26.20
2018-06-16T01:00:23.832Z,26.30
2018-06-16T01:02:52.096Z,25.92
2018-06-16T01:05:20.127Z,25.85
2018-06-16T01:07:48.386Z,24.70
2018-06-16T01:10:16.646Z,26.70
2018-06-16T01:12:44.909Z,25.33
2018-06-16T01:15:13.160Z,25.20
2018-06-16T01:17:41.429Z,25.15
2018-06-16T01:20:09.701Z,25.23
2018-06-16T01:22:37.989Z,24.85
2018-06-16T01:25:06.270Z,24.98
2018-06-16T01:27:34.507Z,24.35
2018-06-16T01:30:02.761Z,25.43
2018-06-16T01:32:30.995Z,24.52
2018-06-16T01:34:59.269Z,24.00
2018-06-16T01:37:27.578Z,25.10
2018-06-16T01:39:55.810Z,25.25
2018-06-16T01:42:24.082Z,26.25
2018-06-16T01:44:52.670Z,26.40
2018-06-16T01:47:20.930Z,26.42
2018-06-16T01:49:49.239Z,26.57
2018-06-16T01:52:17.488Z,26.70
2018-06-16T01:54:45.854Z,26.30
2018-06-16T01:57:13.842Z,26.27
2018-06-16T01:59:42.076Z,27.47
2018-06-16T02:02:10.396Z,28.62
2018-06-16T02:04:38.647Z,27.90
2018-06-16T02:07:06.917Z,27.17
2018-06-16T02:09:35.182Z,26.80
2018-06-16T02:12:03.159Z,28.65
2018-06-16T02:14:31.154Z,27.58
2018-06-16T02:16:59.147Z,29.42
2018-06-16T02:19:27.399Z,28.35
2018-06-16T02:21:55.634Z,28.87
2018-06-16T02:24:24.012Z,28.03
2018-06-16T02:26:52.311Z,27.90
2018-06-16T02:29:22.291Z,29.50
2018-06-16T02:31:53.311Z,29.75
2018-06-16T02:34:23.337Z,27.85
2018-06-16T02:36:52.897Z,28.50
2018-06-16T02:39:22.306Z,28.45
2018-06-16T02:41:50.599Z,28.20
2018-06-16T02:44:18.851Z,28.50
2018-06-16T02:46:47.134Z,28.45
2018-06-16T02:49:15.581Z,29.23
2018-06-16T02:51:43.915Z,27.90
2018-06-16T02:54:12.121Z,28.83
2018-06-16T02:56:40.395Z,28.73
2018-06-16T02:59:08.650Z,28.80
2018-06-16T03:01:36.920Z,28.38
2018-06-16T03:04:05.162Z,28.07
2018-06-16T03:06:33.603Z,28.80
2018-06-16T03:09:01.865Z,29.20
2018-06-16T03:11:30.135Z,28.75
2018-06-16T03:13:58.367Z,28.20
2018-06-16T03:16:26.634Z,28.35
2018-06-16T03:18:54.879Z,27.60
2018-06-16T03:21:23.183Z,28.20
2018-06-16T03:23:51.450Z,29.50
2018-06-16T03:26:19.711Z,28.52
2018-06-16T03:28:47.937Z,28.17
2018-06-16T03:31:16.228Z,28.35
2018-06-16T03:33:44.469Z,28.27
2018-06-16T03:36:12.699Z,27.62
2018-06-16T03:38:40.969Z,28.67
2018-06-16T03:41:09.243Z,28.83
2018-06-16T03:43:37.486Z,27.90
2018-06-16T03:46:05.815Z,26.90
2018-06-16T03:48:34.114Z,28.80
2018-06-16T03:51:02.120Z,28.10
2018-06-16T03:53:30.369Z,26.48
2018-06-16T03:55:58.641Z,27.85
2018-06-16T03:58:26.902Z,27.00
2018-06-16T04:00:55.158Z,27.77
2018-06-16T04:03:23.414Z,28.20
2018-06-16T04:05:51.643Z,27.95
2018-06-16T04:08:19.868Z,26.30
2018-06-16T04:10:48.138Z,25.85
2018-06-16T04:13:16.407Z,27.40
2018-06-16T04:15:45.190Z,23.92
2018-06-16T04:18:13.424Z,23.50
2018-06-16T04:20:41.678Z,24.85
2018-06-16T04:23:09.943Z,24.40
2018-06-16T04:25:38.175Z,23.42
2018-06-16T04:28:06.408Z,23.85
2018-06-16T04:30:34.827Z,23.35
2018-06-16T04:33:03.076Z,22.98
2018-06-16T04:35:31.351Z,23.10
2018-06-16T04:37:59.605Z,23.20
2018-06-16T04:40:27.863Z,21.68
2018-06-16T04:42:56.142Z,22.42
2018-06-16T04:45:24.426Z,21.50
2018-06-16T04:47:52.631Z,20.62
2018-06-16T04:50:20.859Z,20.12
2018-06-16T04:52:49.127Z,18.97
2018-06-16T04:55:17.427Z,20.17
2018-06-16T04:57:45.734Z,20.00
2018-06-16T05:00:14.093Z,19.05
2018-06-16T05:02:42.350Z,18.37
2018-06-16T05:05:10.625Z,17.80
2018-06-16T05:07:39.482Z,16.87
2018-06-16T05:10:08.070Z,16.62
2018-06-16T05:12:36.310Z,16.42
2018-06-16T05:15:05.046Z,15.63
2018-06-16T05:17:33.392Z,16.32
2018-06-16T05:20:01.624Z,15.93
2018-06-16T05:22:29.898Z,15.58
2018-06-16T05:24:58.209Z,15.43
2018-06-16T05:27:26.630Z,15.30
2018-06-16T05:29:54.950Z,14.43
2018-06-16T05:32:23.311Z,14.20
2018-06-16T05:34:51.618Z,14.30
2018-06-16T05:37:19.891Z,13.43
2018-06-16T05:39:48.156Z,13.70
2018-06-16T05:42:16.458Z,12.85
2018-06-16T05:44:44.718Z,13.30
2018-06-16T05:47:12.985Z,13.35
2018-06-16T05:49:41.267Z,12.75
2018-06-16T05:52:09.680Z,13.70
2018-06-16T05:54:37.781Z,12.70
2018-06-16T05:57:06.011Z,12.88
2018-06-16T05:59:34.273Z,12.45
2018-06-16T06:02:02.527Z,13.30
2018-06-16T06:04:30.785Z,12.80
2018-06-16T06:06:59.677Z,12.10
2018-06-16T06:09:32.948Z,12.50
2018-06-16T06:12:03.410Z,11.33
2018-06-16T06:14:35.630Z,12.10
2018-06-16T06:17:04.759Z,10.90
2018-06-16T06:19:33.004Z,11.15
2018-06-16T06:22:01.294Z,12.43
2018-06-16T06:24:30.214Z,11.40
2018-06-16T06:26:58.454Z,11.15
2018-06-16T06:29:31.947Z,11.05
2018-06-16T06:32:00.268Z,11.20
2018-06-16T06:34:28.525Z,10.63
2018-06-16T06:36:56.774Z,10.75
2018-06-16T06:39:25.081Z,10.93
2018-06-16T06:41:53.323Z,10.15
2018-06-16T06:44:21.617Z,9.65
2018-06-16T06:46:49.882Z,9.18
2018-06-16T06:49:18.730Z,9.77
2018-06-16T06:51:47.175Z,9.10
2018-06-16T06:54:15.416Z,9.83
2018-06-16T06:56:43.650Z,8.53
2018-06-16T06:59:11.902Z,9.53
2018-06-16T07:01:40.327Z,9.53
2018-06-16T07:04:08.574Z,8.83
2018-06-16T07:06:36.805Z,8.63
2018-06-16T07:09:07.746Z,8.23
2018-06-16T07:11:36.361Z,8.90
2018-06-16T07:14:04.623Z,8.20
2018-06-16T07:16:32.912Z,8.70
2018-06-16T07:19:01.495Z,7.60
2018-06-16T07:21:29.795Z,8.00
2018-06-16T07:23:58.059Z,7.70
2018-06-16T07:26:26.314Z,8.13
2018-06-16T07:28:54.584Z,7.55
2018-06-16T07:31:22.875Z,7.70
2018-06-16T07:33:51.149Z,6.95
2018-06-16T07:36:20.321Z,6.90
2018-06-16T07:38:49.160Z,7.25
2018-06-16T07:41:19.441Z,7.07
2018-06-16T07:43:47.870Z,6.70
2018-06-16T07:46:16.447Z,7.10
2018-06-16T07:48:52.011Z,7.40
2018-06-16T07:51:20.349Z,7.37
2018-06-16T07:53:48.594Z,7.00
2018-06-16T07:56:16.847Z,7.08
2018-06-16T07:58:45.118Z,7.75
2018-06-16T08:01:13.389Z,7.80
2018-06-16T08:03:41.874Z,7.00
2018-06-16T08:06:10.164Z,6.90
2018-06-16T08:08:38.479Z,7.25
2018-06-16T08:11:06.726Z,8.65
2018-06-16T08:13:35.158Z,7.67
2018-06-16T08:16:03.427Z,6.60
2018-06-16T08:18:31.668Z,7.70
2018-06-16T08:20:59.958Z,7.30
2018-06-16T08:23:28.227Z,6.00
2018-06-16T08:25:56.506Z,6.10
2018-06-16T08:28:24.767Z,6.60
2018-06-16T08:30:53.095Z,6.87
2018-06-16T08:33:22.011Z,6.87
2018-06-16T08:35:58.171Z,6.28
2018-06-16T08:38:34.119Z,6.25
2018-06-16T08:41:02.376Z,6.20
2018-06-16T08:43:30.700Z,6.10
2018-06-16T08:46:04.772Z,5.83
2018-06-16T08:48:33.156Z,6.12
2018-06-16T08:51:01.548Z,6.35
2018-06-16T08:53:29.826Z,5.55
2018-06-16T08:55:58.098Z,5.35
2018-06-16T08:58:26.376Z,5.40
2018-06-16T09:00:54.659Z,5.70
2018-06-16T09:03:22.643Z,7.50
2018-06-16T09:05:50.928Z,6.10
2018-06-16T09:08:19.201Z,6.25
2018-06-16T09:10:47.199Z,6.60
2018-06-16T09:13:15.463Z,5.95
2018-06-16T09:15:44.410Z,6.00
2018-06-16T09:18:12.650Z,6.10
2018-06-16T09:20:40.910Z,5.90
2018-06-16T09:23:09.127Z,6.60
2018-06-16T09:25:37.384Z,6.00
2018-06-16T09:28:14.998Z,5.50
2018-06-16T09:30:43.285Z,6.30
2018-06-16T09:33:12.329Z,6.75
2018-06-16T09:35:41.058Z,7.35
2018-06-16T09:38:09.328Z,6.67
2018-06-16T09:40:37.298Z,7.40
2018-06-16T09:43:05.669Z,7.00
2018-06-16T09:45:33.983Z,7.30
2018-06-16T09:48:02.251Z,7.22
2018-06-16T09:50:30.518Z,8.20
2018-06-16T09:52:58.927Z,8.13
2018-06-16T09:55:33.371Z,8.15
2018-06-16T09:58:03.430Z,9.95
2018-06-16T10:00:37.043Z,9.40
2018-06-16T10:03:05.068Z,9.13
2018-06-16T10:05:33.311Z,8.80
2018-06-16T10:08:01.563Z,9.73
2018-06-16T10:10:29.854Z,9.80
2018-06-16T10:12:58.116Z,10.78
2018-06-16T10:15:26.348Z,9.90
2018-06-16T10:18:04.309Z,6.70
2018-06-16T10:20:32.998Z,8.20
2018-06-16T10:23:01.269Z,8.50
2018-06-16T10:25:29.253Z,8.63
2018-06-16T10:27:57.277Z,8.50
2018-06-16T10:30:25.601Z,8.33
2018-06-16T10:32:53.854Z,6.83
2018-06-16T10:35:22.134Z,6.40
2018-06-16T10:37:50.455Z,8.13
2018-06-16T10:40:18.754Z,6.80
2018-06-16T10:42:47.039Z,5.10
2018-06-16T10:45:15.303Z,5.00
2018-06-16T10:47:43.555Z,4.50
2018-06-16T10:50:11.797Z,4.63
2018-06-16T10:52:40.066Z,3.90
2018-06-16T10:55:08.335Z,3.58
2018-06-16T10:57:36.571Z,3.90
2018-06-16T11:00:05.122Z,3.70
2018-06-16T11:02:33.381Z,3.60
2018-06-16T11:05:01.385Z,3.30
2018-06-16T11:07:29.620Z,4.10
2018-06-16T11:09:57.931Z,3.83
2018-06-16T11:12:26.254Z,4.50
2018-06-16T11:14:54.517Z,4.60
2018-06-16T11:17:22.539Z,4.87
2018-06-16T11:19:50.869Z,4.20
2018-06-16T11:22:19.201Z,3.87
2018-06-16T11:24:47.485Z,3.50
2018-06-16T11:27:15.717Z,3.60
2018-06-16T11:29:44.084Z,4.30
2018-06-16T11:32:15.418Z,3.83
2018-06-16T11:34:43.682Z,4.30
2018-06-16T11:37:11.917Z,4.37
2018-06-16T11:39:40.142Z,4.87
2018-06-16T11:42:08.378Z,4.67
2018-06-16T11:44:36.633Z,4.75
2018-06-16T11:47:08.964Z,6.47
2018-06-16T11:49:37.803Z,5.60
2018-06-16T11:52:07.036Z,5.40
2018-06-16T11:54:35.300Z,5.20
2018-06-16T11:57:03.692Z,5.95
2018-06-16T11:59:31.943Z,5.28
2018-06-16T12:02:04.792Z,5.40
2018-06-16T12:04:32.819Z,4.90
2018-06-16T12:07:01.090Z,5.20
2018-06-16T12:09:29.337Z,6.60
2018-06-16T12:11:57.597Z,6.28
2018-06-16T12:14:26.006Z,6.40
2018-06-16T12:16:54.256Z,6.20
2018-06-16T12:19:22.528Z,6.20
2018-06-16T12:21:50.807Z,5.85
2018-06-16T12:24:18.821Z,6.78
2018-06-16T12:26:47.066Z,5.90
2018-06-16T12:29:15.294Z,5.87
2018-06-16T12:31:43.547Z,6.30
2018-06-16T12:34:11.801Z,6.55
2018-06-16T12:36:40.166Z,6.17
2018-06-16T12:39:09.756Z,5.90
2018-06-16T12:41:38.019Z,5.85
2018-06-16T12:44:06.439Z,5.87
2018-06-16T12:46:34.745Z,5.90
2018-06-16T12:49:05.769Z,7.85
2018-06-16T12:51:34.217Z,7.67
2018-06-16T12:54:02.753Z,7.30
2018-06-16T12:56:31.071Z,7.00
2018-06-16T12:58:59.263Z,5.83
2018-06-16T13:01:27.538Z,5.60
2018-06-16T13:03:55.931Z,6.70
2018-06-16T13:06:24.296Z,6.67
2018-06-16T13:08:52.544Z,6.10
2018-06-16T13:11:20.804Z,6.17
2018-06-16T13:13:49.112Z,6.10
2018-06-16T13:16:17.502Z,5.40
2018-06-16T13:18:45.741Z,5.12
2018-06-16T13:21:13.971Z,5.97
2018-06-16T13:23:42.225Z,5.95
2018-06-16T13:26:10.680Z,5.70
2018-06-16T13:28:38.926Z,5.90
2018-06-16T13:31:07.216Z,6.00
2018-06-16T13:33:35.462Z,5.40
2018-06-16T13:36:03.756Z,4.92
2018-06-16T13:38:36.706Z,5.60
2018-06-16T13:41:05.008Z,4.90
2018-06-16T13:43:33.249Z,4.30
2018-06-16T13:46:01.531Z,4.00
2018-06-16T13:48:30.158Z,5.20
2018-06-16T13:50:58.464Z,4.40
2018-06-16T13:53:26.724Z,4.30
2018-06-16T13:55:54.989Z,4.10
2018-06-16T13:58:23.586Z,4.20
2018-06-16T14:00:51.816Z,4.25
2018-06-16T14:03:21.058Z,4.50
2018-06-16T14:05:55.061Z,4.37
2018-06-16T14:08:25.787Z,4.00
2018-06-16T14:10:54.486Z,4.00
2018-06-16T14:13:22.753Z,4.40
2018-06-16T14:15:51.017Z,4.00
2018-06-16T14:18:19.295Z,4.35
2018-06-16T14:20:47.529Z,4.28
2018-06-16T14:23:15.772Z,4.37
2018-06-16T14:25:44.319Z,3.95
2018-06-16T14:28:12.587Z,4.50
2018-06-16T14:30:40.836Z,3.90
2018-06-16T14:33:09.102Z,3.85
2018-06-16T14:35:37.462Z,4.00
2018-06-16T14:38:06.015Z,3.77
2018-06-16T14:40:34.366Z,4.40
2018-06-16T14:43:03.678Z,4.30
2018-06-16T14:45:31.983Z,3.90
2018-06-16T14:48:00.205Z,3.72
2018-06-16T14:50:29.785Z,3.70
2018-06-16T14:52:58.025Z,3.67
2018-06-16T14:55:26.322Z,3.50
2018-06-16T14:57:54.611Z,3.80
2018-06-16T15:00:22.687Z,3.70
2018-06-16T15:02:50.992Z,3.80
2018-06-16T15:05:19.223Z,4.00
2018-06-16T15:07:47.479Z,4.20
2018-06-16T15:10:15.753Z,4.15
2018-06-16T15:12:43.779Z,3.50
2018-06-16T15:15:12.043Z,3.40
2018-06-16T15:17:40.286Z,3.85
2018-06-16T15:20:08.572Z,3.30
2018-06-16T15:22:36.794Z,3.90
2018-06-16T15:25:05.041Z,3.70
2018-06-16T15:27:33.304Z,4.70
2018-06-16T15:30:01.541Z,3.80
2018-06-16T15:32:29.780Z,3.90
2018-06-16T15:34:58.026Z,3.70
2018-06-16T15:37:26.554Z,3.62
2018-06-16T15:39:54.797Z,3.92
2018-06-16T15:42:23.135Z,3.70
2018-06-16T15:44:51.390Z,3.40
2018-06-16T15:47:19.872Z,3.10
2018-06-16T15:49:48.095Z,3.20
2018-06-16T15:52:16.337Z,3.80
2018-06-16T15:54:44.608Z,3.98
2018-06-16T15:57:12.969Z,3.70
2018-06-16T15:59:41.213Z,3.40
2018-06-16T16:02:09.452Z,3.30
2018-06-16T16:04:37.709Z,3.70
2018-06-16T16:07:06.020Z,3.30
2018-06-16T16:09:34.270Z,3.62
2018-06-16T16:12:02.526Z,3.55
2018-06-16T16:14:30.810Z,3.50
2018-06-16T16:16:59.481Z,4.17
2018-06-16T16:19:27.734Z,4.07
2018-06-16T16:21:56.055Z,3.70
2018-06-16T16:24:24.329Z,3.33
2018-06-16T16:26:52.551Z,4.10
2018-06-16T16:29:20.785Z,3.90
2018-06-16T16:31:49.031Z,3.57
2018-06-16T16:34:17.276Z,3.12
2018-06-16T16:36:45.510Z,3.37
2018-06-16T16:39:13.792Z,3.37
2018-06-16T16:41:42.058Z,3.30
2018-06-16T16:44:10.301Z,3.80
2018-06-16T16:46:38.546Z,3.42
2018-06-16T16:49:07.013Z,3.65
2018-06-16T16:51:35.326Z,3.40
2018-06-16T16:54:03.517Z,3.40
2018-06-16T16:56:31.842Z,3.70
2018-06-16T16:59:00.216Z,3.65
2018-06-16T17:01:28.463Z,3.55
2018-06-16T17:03:56.762Z,3.50
2018-06-16T17:06:25.070Z,3.62
2018-06-16T17:08:53.370Z,3.70
2018-06-16T17:11:21.659Z,3.55
2018-06-16T17:13:49.899Z,3.90
2018-06-16T17:16:18.148Z,3.90
2018-06-16T17:18:46.398Z,3.87
2018-06-16T17:21:14.751Z,4.00
2018-06-16T17:23:43.005Z,4.00
2018-06-16T17:26:11.218Z,4.20
2018-06-16T17:28:39.494Z,4.20
2018-06-16T17:31:07.732Z,3.80
2018-06-16T17:33:36.071Z,4.42
2018-06-16T17:36:04.457Z,4.30
2018-06-16T17:38:32.729Z,4.00
2018-06-16T17:41:00.959Z,4.57
2018-06-16T17:43:28.958Z,4.50
2018-06-16T17:45:56.943Z,3.90
2018-06-16T17:48:25.285Z,4.33
2018-06-16T17:50:53.550Z,4.80
2018-06-16T17:53:21.797Z,4.92
2018-06-16T17:55:50.044Z,3.90
2018-06-16T17:58:18.303Z,4.10
2018-06-16T18:00:46.525Z,4.50
2018-06-16T18:03:14.954Z,4.90
2018-06-16T18:05:43.302Z,6.10
2018-06-16T18:08:11.558Z,6.60
2018-06-16T18:10:39.825Z,8.78
2018-06-16T18:13:07.804Z,7.78
2018-06-16T18:15:35.829Z,9.13
2018-06-16T18:18:04.023Z,9.78
2018-06-16T18:20:32.305Z,9.55
2018-06-16T18:23:00.549Z,9.83
2018-06-16T18:25:29.890Z,10.20
2018-06-16T18:27:58.130Z,42.23
2018-06-16T18:30:26.554Z,15.35
2018-06-16T18:32:54.807Z,21.33
2018-06-16T18:35:23.066Z,17.35
2018-06-16T18:37:51.306Z,10.30
2018-06-16T18:40:19.639Z,11.75
2018-06-16T18:42:47.910Z,13.62
2018-06-16T18:45:16.182Z,14.73
2018-06-16T18:47:44.195Z,10.40
2018-06-16T18:50:12.493Z,10.55
2018-06-16T18:55:31.491Z,9.75
2018-06-16T18:57:59.748Z,9.70
2018-06-16T19:00:27.999Z,10.67
2018-06-16T19:02:56.294Z,9.83
2018-06-16T19:05:24.629Z,9.67
2018-06-16T19:07:53.182Z,10.00
2018-06-16T19:10:21.411Z,10.20
2018-06-16T19:12:49.667Z,9.10
2018-06-16T19:15:17.916Z,10.40
2018-06-16T19:17:46.192Z,11.20
2018-06-16T19:20:14.429Z,10.50
2018-06-16T19:22:42.651Z,10.88
2018-06-16T19:25:10.906Z,9.70
2018-06-16T19:27:39.153Z,9.78
2018-06-16T19:30:07.412Z,10.20
2018-06-16T19:32:35.681Z,9.83
2018-06-16T19:35:03.688Z,9.40
2018-06-16T19:37:31.957Z,10.68
2018-06-16T19:40:00.069Z,9.90
2018-06-16T19:42:28.315Z,10.40
2018-06-16T19:44:56.610Z,10.28
2018-06-16T19:47:25.791Z,10.20
2018-06-16T19:49:54.267Z,9.58
2018-06-16T19:52:22.546Z,9.08
2018-06-16T19:54:50.762Z,9.78
2018-06-16T19:57:19.031Z,10.10
2018-06-16T19:59:47.270Z,9.20
2018-06-16T20:02:15.683Z,9.58
2018-06-16T20:04:43.935Z,10.00
2018-06-16T20:07:12.226Z,9.35
2018-06-16T20:09:40.466Z,9.30
2018-06-16T20:12:08.707Z,9.58
2018-06-16T20:14:36.999Z,9.20
2018-06-16T20:17:05.230Z,9.73
2018-06-16T20:19:33.573Z,9.70
2018-06-16T20:22:01.863Z,8.70
2018-06-16T20:24:32.130Z,9.50
2018-06-16T20:27:00.373Z,9.50
2018-06-16T20:29:28.812Z,8.70
2018-06-16T20:31:57.087Z,9.63
2018-06-16T20:34:25.437Z,10.43
2018-06-16T20:36:54.518Z,10.53
2018-06-16T20:39:22.750Z,9.90
2018-06-16T20:41:51.030Z,10.08
2018-06-16T20:44:19.299Z,9.80
2018-06-16T20:46:47.574Z,10.60
2018-06-16T20:49:15.859Z,10.58
2018-06-16T20:51:44.124Z,10.35
2018-06-16T20:54:12.492Z,10.23
2018-06-16T20:56:40.515Z,10.10
2018-06-16T20:59:08.759Z,10.15
2018-06-16T21:01:37.064Z,10.60
2018-06-16T21:04:05.157Z,10.45
2018-06-16T21:06:33.434Z,10.80
2018-06-16T21:09:01.423Z,11.20
2018-06-16T21:11:29.696Z,11.50
2018-06-16T21:13:57.989Z,10.90
2018-06-16T21:16:26.347Z,11.57
2018-06-16T21:18:54.635Z,11.45
2018-06-16T21:21:23.262Z,11.60
2018-06-16T21:23:51.490Z,12.30
2018-06-16T21:26:19.750Z,13.10
2018-06-16T21:28:48.086Z,12.55
2018-06-16T21:31:16.918Z,12.53
2018-06-16T21:33:45.185Z,12.70
2018-06-16T21:36:13.449Z,13.38
2018-06-16T21:38:41.697Z,13.18
2018-06-16T21:41:10.069Z,13.43
2018-06-16T21:43:38.300Z,12.60
2018-06-16T21:46:06.644Z,12.13
2018-06-16T21:48:34.901Z,12.50
2018-06-16T21:51:03.673Z,13.00
2018-06-16T21:53:31.954Z,13.70
2018-06-16T21:56:00.195Z,13.20
2018-06-16T21:58:28.479Z,13.15
2018-06-16T22:00:56.856Z,13.55
2018-06-16T22:03:25.119Z,13.95
2018-06-16T22:05:53.465Z,14.20
2018-06-16T22:08:27.048Z,14.90
2018-06-16T22:10:55.354Z,14.50
2018-06-16T22:13:23.583Z,14.15
2018-06-16T22:15:51.814Z,14.28
2018-06-16T22:18:20.198Z,14.65
2018-06-16T22:20:48.537Z,15.35
2018-06-16T22:23:16.836Z,14.80
2018-06-16T22:25:45.127Z,14.90
2018-06-16T22:28:13.133Z,15.48
2018-06-16T22:30:41.451Z,15.63
2018-06-16T22:33:09.686Z,15.68
2018-06-16T22:35:37.942Z,14.58
2018-06-16T22:38:06.180Z,14.90
2018-06-16T22:40:34.432Z,15.18
2018-06-16T22:43:02.730Z,15.13
2018-06-16T22:45:30.997Z,15.32
2018-06-16T22:47:59.261Z,15.03
2018-06-16T22:50:27.600Z,16.40
2018-06-16T22:52:56.034Z,16.00
2018-06-16T22:55:24.319Z,16.27
2018-06-16T22:57:52.552Z,15.95
2018-06-16T23:00:24.653Z,15.70
2018-06-16T23:02:52.935Z,15.95
2018-06-16T23:05:21.754Z,15.85
2018-06-16T23:07:50.010Z,16.35
2018-06-16T23:10:18.255Z,18.35
2018-06-16T23:12:46.503Z,18.10
2018-06-16T23:15:14.830Z,17.30
2018-06-16T23:17:43.091Z,17.65
2018-06-16T23:20:11.364Z,16.93
2018-06-16T23:22:39.958Z,18.00
2018-06-16T23:25:08.198Z,17.15
2018-06-16T23:27:36.490Z,18.02
2018-06-16T23:30:04.846Z,18.00
2018-06-16T23:32:33.131Z,17.48
2018-06-16T23:35:01.113Z,17.90
2018-06-16T23:37:29.102Z,17.85
2018-06-16T23:39:57.373Z,17.15
2018-06-16T23:42:25.505Z,17.85
2018-06-16T23:44:53.849Z,15.93
2018-06-16T23:47:22.098Z,15.90
2018-06-16T23:49:50.320Z,16.85
2018-06-16T23:52:18.553Z,17.65
2018-06-16T23:54:46.874Z,16.23
2018-06-16T23:57:15.935Z,17.95
2018-06-16T23:59:44.194Z,18.45
